createdAt,value
2022-12-01T00:00:13.009Z,96.93
2022-12-01T00:01:11.993Z,96.98
2022-12-01T00:02:12.699Z,97.06
2022-12-01T00:03:13.360Z,96.92
2022-12-01T00:04:13.246Z,96.96
2022-12-01T00:05:13.666Z,96.81
2022-12-01T00:06:19.229Z,96.81
2022-12-01T00:07:17.758Z,96.86
2022-12-01T00:08:17.766Z,96.74
2022-12-01T00:09:20.228Z,96.76
2022-12-01T00:10:19.014Z,97.06
2022-12-01T00:11:19.131Z,97.11
2022-12-01T00:12:19.555Z,97.32
2022-12-01T00:13:19.953Z,97.34
2022-12-01T00:14:20.367Z,97.3
2022-12-01T00:15:21.400Z,97.25
2022-12-01T00:16:21.147Z,97.24
2022-12-01T00:17:22.338Z,97.22
2022-12-01T00:18:21.654Z,97.26
2022-12-01T00:19:26.134Z,97.37
2022-12-01T00:20:24.297Z,97.38
2022-12-01T00:21:27.068Z,97.23
2022-12-01T00:22:25.040Z,97.24
2022-12-01T00:23:25.336Z,97.24
2022-12-01T00:24:26.068Z,97.37
2022-12-01T00:25:26.580Z,97.44
2022-12-01T00:26:27.513Z,97.4
2022-12-01T00:27:27.113Z,97.42
2022-12-01T00:28:27.624Z,97.38
2022-12-01T00:29:27.836Z,97.38
2022-12-01T00:30:28.257Z,97.45
2022-12-01T00:31:28.752Z,97.49
2022-12-01T00:32:31.447Z,97.46
2022-12-01T00:33:29.504Z,97.52
2022-12-01T00:34:29.853Z,97.63
2022-12-01T00:35:30.644Z,97.65
2022-12-01T00:36:30.958Z,97.64
2022-12-01T00:37:31.781Z,97.71
2022-12-01T00:38:32.443Z,97.75
2022-12-01T00:39:32.205Z,97.82
2022-12-01T00:40:32.431Z,97.86
2022-12-01T00:41:32.926Z,97.86
2022-12-01T00:42:33.464Z,97.92
2022-12-01T00:43:33.794Z,97.93
2022-12-01T00:44:34.097Z,97.96
2022-12-01T00:45:34.358Z,97.95
2022-12-01T00:46:34.726Z,98.03
2022-12-01T00:47:35.329Z,97.96
2022-12-01T00:48:35.415Z,97.94
2022-12-01T00:49:36.163Z,97.91
2022-12-01T00:50:36.576Z,97.86
2022-12-01T00:51:37.005Z,97.82
2022-12-01T00:52:37.413Z,97.79
2022-12-01T00:53:37.828Z,97.74
2022-12-01T00:54:38.348Z,97.67
2022-12-01T00:55:38.675Z,97.76
2022-12-01T00:56:38.975Z,97.84
2022-12-01T00:57:39.293Z,97.94
2022-12-01T00:58:40.518Z,98.03
2022-12-01T00:59:40.830Z,97.99
2022-12-01T01:00:41.252Z,97.87
2022-12-01T01:01:41.730Z,97.86
2022-12-01T01:02:42.246Z,97.87
2022-12-01T01:03:42.595Z,97.83
2022-12-01T01:04:43.026Z,97.85
2022-12-01T01:05:44.155Z,97.85
2022-12-01T01:06:43.545Z,97.87
2022-12-01T01:07:44.246Z,97.94
2022-12-01T01:08:44.496Z,97.88
2022-12-01T01:09:44.803Z,97.8
2022-12-01T01:10:47.154Z,97.73
2022-12-01T01:11:45.956Z,97.68
2022-12-01T01:12:46.049Z,97.68
2022-12-01T01:13:46.660Z,97.58
2022-12-01T01:14:47.093Z,97.45
2022-12-01T01:15:56.514Z,97.35
2022-12-01T01:16:49.736Z,97.46
2022-12-01T01:17:49.871Z,97.37
2022-12-01T01:18:50.483Z,97.31
2022-12-01T01:19:51.031Z,97.33
2022-12-01T01:21:54.706Z,97.5
2022-12-01T01:22:55.061Z,97.49
2022-12-01T01:23:55.964Z,97.33
2022-12-01T01:24:55.865Z,97.38
2022-12-01T01:26:02.827Z,97.45
2022-12-01T01:27:00.974Z,97.5
2022-12-01T01:28:01.503Z,97.49
2022-12-01T01:29:04.572Z,97.42
2022-12-01T01:30:02.738Z,97.39
2022-12-01T01:31:10.102Z,97.3
2022-12-01T01:32:03.388Z,97.29
2022-12-01T01:33:03.475Z,97.15
2022-12-01T01:34:03.911Z,97.18
2022-12-01T01:35:04.835Z,97.29
2022-12-01T01:36:06.064Z,97.38
2022-12-01T01:37:05.165Z,97.21
2022-12-01T01:38:05.504Z,97.11
2022-12-01T01:39:05.888Z,97.09
2022-12-01T01:40:08.243Z,97.14
2022-12-01T01:41:07.523Z,97.16
2022-12-01T01:42:07.435Z,97.12
2022-12-01T01:48:19.140Z,97.09
2022-12-01T01:49:19.225Z,97.03
2022-12-01T01:52:25.256Z,96.81
2022-12-01T01:53:25.472Z,96.76
2022-12-01T01:56:32.423Z,97.08
2022-12-01T01:57:34.473Z,97.03
2022-12-01T01:58:34.155Z,97.02
2022-12-01T02:00:38.698Z,96.85
2022-12-01T02:01:36.955Z,96.85
2022-12-01T02:02:39.442Z,96.85
2022-12-01T02:03:40.444Z,96.91
2022-12-01T02:05:40.356Z,96.89
2022-12-01T02:06:39.222Z,96.82
2022-12-01T02:07:40.710Z,96.8
2022-12-01T02:08:39.963Z,96.78
2022-12-01T02:09:40.275Z,96.75
2022-12-01T02:34:35.931Z,96.07
2022-12-01T02:41:54.514Z,96.12
2022-12-01T02:44:52.484Z,96.36
2022-12-01T02:48:02.739Z,96.04
2022-12-01T02:50:05.424Z,95.99
2022-12-01T02:52:08.715Z,96.07
2022-12-01T02:53:11.065Z,96.19
2022-12-01T02:54:10.266Z,96.18
2022-12-01T02:55:09.785Z,96.29
2022-12-01T02:57:14.167Z,96.35
2022-12-01T02:58:14.695Z,96.21
2022-12-01T02:59:15.131Z,96.21
2022-12-01T03:00:15.735Z,96.29
2022-12-01T03:16:54.432Z,96.52
2022-12-01T03:25:14.942Z,97.28
2022-12-01T03:26:18.660Z,97.11
2022-12-01T03:30:29.027Z,97.19
2022-12-01T03:36:52.224Z,97.6
2022-12-01T03:38:59.806Z,97.87
2022-12-01T03:40:00.544Z,97.86
2022-12-01T03:41:02.787Z,97.8
2022-12-01T03:42:07.292Z,97.94
2022-12-01T03:43:10.275Z,97.82
2022-12-01T03:45:20.844Z,97.93
2022-12-01T03:46:26.045Z,97.78
2022-12-01T03:48:14.404Z,97.62
2022-12-01T03:49:17.595Z,97.43
2022-12-01T03:50:17.185Z,97.53
2022-12-01T03:54:26.323Z,97.67
2022-12-01T03:56:23.675Z,97.62
2022-12-01T03:58:33.935Z,97.75
2022-12-01T03:59:29.954Z,97.78
2022-12-01T04:00:29.023Z,97.81
2022-12-01T04:01:31.879Z,97.78
2022-12-01T04:02:30.257Z,97.95
2022-12-01T04:03:30.471Z,97.78
2022-12-01T04:04:30.792Z,97.7
2022-12-01T04:05:32.844Z,97.97
2022-12-01T04:06:31.622Z,97.83
2022-12-01T04:07:32.179Z,97.81
2022-12-01T04:08:32.364Z,97.88
2022-12-01T04:09:32.764Z,97.92
2022-12-01T04:10:33.181Z,97.93
2022-12-01T04:11:33.502Z,97.94
2022-12-01T04:12:34.835Z,97.97
2022-12-01T04:13:34.432Z,98.13
2022-12-01T04:14:34.742Z,98.16
2022-12-01T04:15:35.266Z,98.08
2022-12-01T04:16:35.761Z,97.79
2022-12-01T04:17:36.514Z,97.82
2022-12-01T04:18:36.305Z,97.9
2022-12-01T04:19:36.823Z,97.97
2022-12-01T04:20:37.134Z,98.02
2022-12-01T04:21:37.448Z,97.96
2022-12-01T04:22:38.072Z,98.02
2022-12-01T04:23:38.284Z,98.06
2022-12-01T04:24:38.813Z,98
2022-12-01T04:25:38.924Z,97.97
2022-12-01T04:26:39.542Z,97.89
2022-12-01T04:27:40.151Z,97.89
2022-12-01T04:28:40.261Z,97.85
2022-12-01T04:29:42.120Z,97.95
2022-12-01T04:30:40.995Z,98.07
2022-12-01T04:31:41.846Z,98.06
2022-12-01T04:32:43.872Z,98.03
2022-12-01T04:33:42.455Z,98.02
2022-12-01T04:34:42.857Z,98.04
2022-12-01T04:35:43.114Z,98.02
2022-12-01T04:36:43.594Z,98.09
2022-12-01T04:37:44.118Z,98.09
2022-12-01T04:38:44.351Z,98.08
2022-12-01T04:39:44.943Z,98.11
2022-12-01T04:40:45.050Z,98.07
2022-12-01T04:41:45.472Z,98.02
2022-12-01T04:42:45.886Z,97.99
2022-12-01T04:43:46.105Z,98.01
2022-12-01T04:44:46.611Z,98.03
2022-12-01T04:45:46.936Z,98.01
2022-12-01T04:46:47.542Z,97.92
2022-12-01T04:47:47.873Z,97.92
2022-12-01T04:48:48.286Z,98
2022-12-01T04:49:49.100Z,98.09
2022-12-01T04:50:50.248Z,98.18
2022-12-01T04:51:49.846Z,98.25
2022-12-01T04:52:49.854Z,98.35
2022-12-01T04:53:52.920Z,98.36
2022-12-01T04:54:50.926Z,98.35
2022-12-01T04:55:51.406Z,98.22
2022-12-01T04:56:51.711Z,98.18
2022-12-01T04:57:52.840Z,98.05
2022-12-01T04:58:52.571Z,97.93
2022-12-01T04:59:52.852Z,97.83
2022-12-01T05:00:53.450Z,97.9
2022-12-01T05:01:53.777Z,97.93
2022-12-01T05:02:54.205Z,97.87
2022-12-01T05:03:54.629Z,97.85
2022-12-01T05:04:54.949Z,97.88
2022-12-01T05:06:57.823Z,97.93
2022-12-01T05:07:59.839Z,97.99
2022-12-01T05:09:00.702Z,98.04
2022-12-01T05:09:58.757Z,97.95
2022-12-01T05:10:59.496Z,98.05
2022-12-01T05:11:59.897Z,98.04
2022-12-01T05:13:00.414Z,98.02
2022-12-01T05:14:01.056Z,98.02
2022-12-01T05:15:00.948Z,98.04
2022-12-01T05:17:01.465Z,98.15
2022-12-01T05:18:02.001Z,98.14
2022-12-01T05:19:05.573Z,98.04
2022-12-01T05:20:03.945Z,98.12
2022-12-01T05:21:06.204Z,98.16
2022-12-01T05:22:04.269Z,98
2022-12-01T05:23:06.255Z,97.88
2022-12-01T05:24:05.709Z,97.83
2022-12-01T05:25:06.048Z,97.71
2022-12-01T05:26:08.283Z,97.76
2022-12-01T05:27:06.241Z,97.89
2022-12-01T05:28:06.660Z,97.83
2022-12-01T05:29:07.078Z,97.85
2022-12-01T05:30:08.543Z,97.86
2022-12-01T05:31:07.947Z,97.87
2022-12-01T05:32:08.326Z,97.96
2022-12-01T05:33:08.744Z,98.08
2022-12-01T05:34:09.263Z,98.24
2022-12-01T05:35:09.993Z,98.19
2022-12-01T05:36:10.304Z,98.12
2022-12-01T05:37:10.709Z,97.95
2022-12-01T05:38:10.745Z,97.91
2022-12-01T05:39:10.937Z,97.97
2022-12-01T05:40:12.574Z,97.98
2022-12-01T05:41:12.172Z,97.94
2022-12-01T05:42:12.283Z,97.72
2022-12-01T05:43:12.502Z,97.64
2022-12-01T05:44:12.807Z,97.62
2022-12-01T05:45:13.333Z,97.65
2022-12-01T05:46:14.257Z,97.64
2022-12-01T05:47:14.362Z,97.74
2022-12-01T05:48:14.577Z,97.79
2022-12-01T05:49:14.887Z,97.78
2022-12-01T05:50:15.628Z,97.7
2022-12-01T05:51:17.253Z,97.58
2022-12-01T05:52:16.237Z,97.64
2022-12-01T05:53:17.405Z,97.6
2022-12-01T05:54:16.661Z,97.65
2022-12-01T05:55:17.691Z,97.67
2022-12-01T05:56:17.705Z,97.71
2022-12-01T05:57:18.218Z,97.77
2022-12-01T05:58:18.463Z,97.68
2022-12-01T05:59:18.741Z,97.66
2022-12-01T06:00:20.282Z,97.7
2022-12-01T06:01:19.784Z,97.52
2022-12-01T06:02:20.338Z,97.38
2022-12-01T06:03:20.415Z,97.31
2022-12-01T06:04:21.169Z,97.35
2022-12-01T06:05:21.640Z,97.36
2022-12-01T06:06:21.657Z,97.42
2022-12-01T06:07:22.665Z,97.49
2022-12-01T06:08:22.595Z,97.5
2022-12-01T06:09:23.007Z,97.52
2022-12-01T06:10:23.222Z,97.52
2022-12-01T06:11:23.645Z,97.5
2022-12-01T06:12:24.048Z,97.55
2022-12-01T06:13:24.574Z,97.49
2022-12-01T06:14:24.915Z,97.48
2022-12-01T06:15:25.337Z,97.48
2022-12-01T06:16:25.988Z,97.51
2022-12-01T06:17:26.032Z,97.57
2022-12-01T06:18:28.101Z,97.63
2022-12-01T06:19:26.970Z,97.67
2022-12-01T06:20:27.696Z,97.67
2022-12-01T06:21:27.596Z,97.68
2022-12-01T06:22:28.003Z,97.72
2022-12-01T06:23:30.550Z,97.66
2022-12-01T06:24:28.843Z,97.52
2022-12-01T06:25:29.049Z,97.37
2022-12-01T06:26:29.778Z,97.36
2022-12-01T06:27:30.088Z,97.4
2022-12-01T06:28:30.512Z,97.31
2022-12-01T06:29:30.723Z,97.29
2022-12-01T06:30:33.543Z,97.3
2022-12-01T06:31:31.913Z,97.25
2022-12-01T06:32:32.713Z,97.31
2022-12-01T06:33:33.015Z,97.33
2022-12-01T06:34:33.011Z,97.27
2022-12-01T06:35:33.323Z,97.32
2022-12-01T06:36:33.744Z,97.39
2022-12-01T06:37:34.054Z,97.28
2022-12-01T06:38:36.610Z,97.19
2022-12-01T06:39:34.898Z,97.12
2022-12-01T06:40:35.299Z,97
2022-12-01T06:41:35.607Z,96.88
2022-12-01T06:42:36.029Z,96.81
2022-12-01T06:43:37.668Z,96.62
2022-12-01T06:44:36.866Z,96.55
2022-12-01T06:45:37.330Z,96.56
2022-12-01T06:46:37.744Z,96.42
2022-12-01T06:47:38.615Z,96.36
2022-12-01T06:48:38.518Z,96.33
2022-12-01T06:49:38.843Z,96.04
2022-12-01T06:50:39.145Z,95.79
2022-12-01T06:51:40.185Z,95.66
2022-12-01T06:52:40.189Z,95.45
2022-12-01T06:53:40.504Z,95.35
2022-12-01T06:54:40.713Z,95.37
2022-12-01T06:55:41.032Z,95.33
2022-12-01T06:56:42.672Z,95.27
2022-12-01T06:57:42.670Z,95.22
2022-12-01T06:58:43.095Z,95.27
2022-12-01T06:59:43.506Z,95.23
2022-12-01T07:00:48.981Z,95.24
2022-12-01T07:01:44.714Z,95.14
2022-12-01T07:02:45.144Z,95.04
2022-12-01T07:03:49.784Z,95.02
2022-12-01T07:04:47.739Z,95.05
2022-12-01T07:06:51.967Z,94.96
2022-12-01T07:07:57.886Z,94.97
2022-12-01T07:08:57.438Z,94.99
2022-12-01T07:09:57.614Z,94.83
2022-12-01T07:11:00.077Z,94.85
2022-12-01T07:11:58.469Z,94.91
2022-12-01T07:12:59.276Z,94.94
2022-12-01T07:13:59.680Z,94.92
2022-12-01T07:14:59.599Z,95.04
2022-12-01T07:16:00.310Z,94.95
2022-12-01T07:17:00.505Z,94.74
2022-12-01T07:18:00.625Z,94.53
2022-12-01T07:19:01.258Z,94.66
2022-12-01T07:20:01.587Z,94.57
2022-12-01T07:21:03.212Z,94.55
2022-12-01T07:22:02.306Z,94.37
2022-12-01T07:23:02.613Z,94.26
2022-12-01T07:24:03.026Z,94
2022-12-01T07:25:03.453Z,93.76
2022-12-01T07:26:10.614Z,93.64
2022-12-01T07:27:08.773Z,93.65
2022-12-01T07:28:09.194Z,93.58
2022-12-01T07:29:10.646Z,93.63
2022-12-01T07:30:10.637Z,93.66
2022-12-01T07:31:15.943Z,93.68
2022-12-01T07:32:13.835Z,93.42
2022-12-01T07:33:14.261Z,93.13
2022-12-01T07:34:14.757Z,93.09
2022-12-01T07:35:15.295Z,92.95
2022-12-01T07:36:15.803Z,92.96
2022-12-01T07:37:15.915Z,93.21
2022-12-01T07:38:21.803Z,93.15
2022-12-01T07:39:20.118Z,93.18
2022-12-01T07:40:20.753Z,93.22
2022-12-01T07:41:20.846Z,92.92
2022-12-01T07:42:21.376Z,92.78
2022-12-01T07:43:21.794Z,92.46
2022-12-01T07:44:22.105Z,92.62
2022-12-01T07:45:22.419Z,92.7
2022-12-01T07:46:25.677Z,92.63
2022-12-01T07:47:23.747Z,92.65
2022-12-01T07:48:23.972Z,92.86
2022-12-01T07:49:24.421Z,93.06
2022-12-01T07:50:24.900Z,93.03
2022-12-01T07:51:26.452Z,93.28
2022-12-01T07:52:25.833Z,93.25
2022-12-01T07:53:26.360Z,93.38
2022-12-01T07:54:26.262Z,93.45
2022-12-01T07:55:26.892Z,93.61
2022-12-01T07:56:27.292Z,93.54
2022-12-01T07:57:27.446Z,93.55
2022-12-01T07:58:28.432Z,93.35
2022-12-01T07:59:28.540Z,93.19
2022-12-01T08:00:28.753Z,93.15
2022-12-01T08:01:29.143Z,93.42
2022-12-01T08:02:29.650Z,93.63
2022-12-01T08:03:29.812Z,93.57
2022-12-01T08:04:30.434Z,93.57
2022-12-01T08:05:30.754Z,93.55
2022-12-01T08:06:31.273Z,93.32
2022-12-01T08:07:31.531Z,93.34
2022-12-01T08:08:33.729Z,93.16
2022-12-01T08:09:32.304Z,93.17
2022-12-01T08:10:32.504Z,92.75
2022-12-01T08:11:32.925Z,92.58
2022-12-01T08:12:33.441Z,92.73
2022-12-01T08:13:34.177Z,92.85
2022-12-01T08:14:34.284Z,92.91
2022-12-01T08:15:34.433Z,92.76
2022-12-01T08:16:35.106Z,92.36
2022-12-01T08:17:35.227Z,92.16
2022-12-01T08:18:36.965Z,92.2
2022-12-01T08:19:36.372Z,92.15
2022-12-01T08:20:36.464Z,92.08
2022-12-01T08:21:36.886Z,92.08
2022-12-01T08:22:37.234Z,92.12
2022-12-01T08:23:37.617Z,91.74
2022-12-01T08:24:38.037Z,91.5
2022-12-01T08:25:38.342Z,91.62
2022-12-01T08:26:38.865Z,91.52
2022-12-01T08:27:39.089Z,91.29
2022-12-01T08:28:43.274Z,91.68
2022-12-01T08:29:41.035Z,91.67
2022-12-01T08:30:41.717Z,91.7
2022-12-01T08:31:42.313Z,91.77
2022-12-01T08:32:42.386Z,91.69
2022-12-01T08:33:42.795Z,91.7
2022-12-01T08:34:43.216Z,91.4
2022-12-01T08:35:43.636Z,91.48
2022-12-01T08:36:43.940Z,91.37
2022-12-01T08:37:44.053Z,91.28
2022-12-01T08:38:46.023Z,91.28
2022-12-01T08:39:45.195Z,91.31
2022-12-01T08:40:45.512Z,91.31
2022-12-01T08:41:46.024Z,91.29
2022-12-01T08:42:46.454Z,91.34
2022-12-01T08:43:57.921Z,91.3
2022-12-01T08:44:51.852Z,91.25
2022-12-01T08:45:51.984Z,91.25
2022-12-01T08:46:52.661Z,90.76
2022-12-01T08:47:54.582Z,90.84
2022-12-01T08:48:54.174Z,91.03
2022-12-01T08:49:53.552Z,90.8
2022-12-01T08:51:02.266Z,90.73
2022-12-01T08:51:55.215Z,90.38
2022-12-01T08:52:55.513Z,90.28
2022-12-01T08:53:57.559Z,90.24
2022-12-01T08:54:56.146Z,90.38
2022-12-01T08:55:59.225Z,90.34
2022-12-01T08:56:57.294Z,90.49
2022-12-01T08:57:58.031Z,90.4
2022-12-01T08:58:57.915Z,90.19
2022-12-01T08:59:58.229Z,90.14
2022-12-01T09:01:07.257Z,90.09
2022-12-01T09:02:05.378Z,90.17
2022-12-01T09:03:04.894Z,90.15
2022-12-01T09:04:05.868Z,90
2022-12-01T09:05:06.354Z,90.04
2022-12-01T09:07:11.379Z,90.13
2022-12-01T09:08:09.281Z,89.94
2022-12-01T09:09:12.015Z,89.79
2022-12-01T09:10:11.004Z,89.53
2022-12-01T09:11:16.630Z,89.54
2022-12-01T09:12:14.496Z,89.37
2022-12-01T09:13:14.906Z,89.72
2022-12-01T09:14:17.275Z,89.58
2022-12-01T09:15:15.940Z,89.8
2022-12-01T09:16:17.286Z,89.75
2022-12-01T09:17:17.999Z,89.97
2022-12-01T09:18:16.787Z,89.81
2022-12-01T09:19:23.965Z,89.47
2022-12-01T09:20:18.018Z,89.45
2022-12-01T09:21:22.220Z,89.26
2022-12-01T09:22:20.194Z,89.27
2022-12-01T09:23:20.597Z,88.97
2022-12-01T09:24:21.434Z,89.19
2022-12-01T09:25:21.431Z,89.16
2022-12-01T09:26:21.948Z,88.76
2022-12-01T09:27:22.065Z,88.91
2022-12-01T09:28:22.677Z,88.34
2022-12-01T09:29:22.685Z,88.73
2022-12-01T09:30:23.100Z,88.64
2022-12-01T09:31:24.310Z,88.54
2022-12-01T09:32:24.262Z,88.49
2022-12-01T09:33:24.575Z,88.81
2022-12-01T09:34:25.393Z,88.44
2022-12-01T09:35:25.280Z,88.5
2022-12-01T09:36:26.322Z,88.49
2022-12-01T09:37:25.913Z,88.46
2022-12-01T09:38:26.753Z,88.69
2022-12-01T09:39:26.858Z,88.69
2022-12-01T09:40:32.502Z,88.8
2022-12-01T09:42:35.553Z,88.51
2022-12-01T09:45:44.312Z,88.19
2022-12-01T09:46:53.702Z,88.16
2022-12-01T09:47:46.855Z,88.1
2022-12-01T09:48:50.199Z,88.03
2022-12-01T09:50:50.249Z,87.68
2022-12-01T09:51:53.342Z,87.67
2022-12-01T09:52:55.093Z,87.92
2022-12-01T09:54:58.794Z,88.26
2022-12-01T09:56:04.866Z,87.89
2022-12-01T09:57:00.368Z,87.88
2022-12-01T09:58:02.914Z,88.03
2022-12-01T09:59:05.269Z,87.62
2022-12-01T10:01:05.035Z,87.57
2022-12-01T10:06:32.477Z,87.15
2022-12-01T10:13:34.334Z,86.07
2022-12-01T10:14:36.404Z,85.9
2022-12-01T10:26:00.423Z,85.51
2022-12-01T10:30:13.167Z,85.05
2022-12-01T10:31:20.072Z,84.78
2022-12-01T10:32:18.091Z,85.12
2022-12-01T10:34:18.642Z,84.95
2022-12-01T10:35:18.219Z,85.11
2022-12-01T10:36:17.086Z,85.06
2022-12-01T10:37:25.072Z,84.73
2022-12-01T10:38:28.983Z,85.09
2022-12-01T10:39:31.340Z,85.39
2022-12-01T10:40:25.100Z,84.93
2022-12-01T10:41:28.486Z,84.99
2022-12-01T10:42:35.964Z,84.87
2022-12-01T10:44:33.425Z,85.04
2022-12-01T10:45:37.899Z,84.89
2022-12-01T10:46:46.130Z,85.05
2022-12-01T10:47:39.166Z,85.66
2022-12-01T10:49:42.254Z,84.94
2022-12-01T10:50:48.813Z,84.99
2022-12-01T10:52:49.761Z,84.81
2022-12-01T10:53:50.990Z,84.68
2022-12-01T10:54:50.891Z,84.88
2022-12-01T10:55:57.726Z,84.83
2022-12-01T10:56:56.857Z,84.63
2022-12-01T10:58:06.213Z,84.81
2022-12-01T10:59:00.461Z,84.54
2022-12-01T11:01:04.040Z,84.22
2022-12-01T11:02:03.502Z,84.58
2022-12-01T11:03:03.624Z,84.64
2022-12-01T11:05:08.260Z,84.76
2022-12-01T11:06:08.168Z,84.9
2022-12-01T11:07:07.053Z,85.03
2022-12-01T11:08:07.811Z,84.74
2022-12-01T11:12:19.164Z,84.51
2022-12-01T11:14:25.624Z,84.75
2022-12-01T11:15:27.279Z,84.5
2022-12-01T11:19:35.123Z,84.98
2022-12-01T11:20:40.255Z,84.96
2022-12-01T11:21:33.455Z,85.18
2022-12-01T11:22:33.675Z,85.5
2022-12-01T11:23:45.459Z,85.2
2022-12-01T11:25:39.419Z,85.48
2022-12-01T11:26:39.840Z,85.47
2022-12-01T11:29:48.820Z,85.12
2022-12-01T11:30:49.280Z,85.06
2022-12-01T11:31:51.794Z,84.99
2022-12-01T11:32:56.357Z,85.27
2022-12-01T11:33:56.999Z,85.29
2022-12-01T11:35:00.108Z,85.39
2022-12-01T11:35:58.456Z,85.4
2022-12-01T11:37:03.757Z,85.04
2022-12-01T11:38:28.968Z,84.92
2022-12-01T11:39:02.759Z,84.61
2022-12-01T11:41:05.742Z,84.93
2022-12-01T11:43:08.210Z,84.64
2022-12-01T11:46:16.458Z,84.25
2022-12-01T11:47:24.175Z,84.13
2022-12-01T11:48:29.433Z,83.81
2022-12-01T11:49:30.370Z,83.63
2022-12-01T11:50:28.734Z,83.64
2022-12-01T11:51:34.998Z,83.9
2022-12-01T11:52:33.972Z,84.25
2022-12-01T11:53:37.357Z,84.27
2022-12-01T11:54:35.423Z,83.99
2022-12-01T11:55:35.731Z,83.78
2022-12-01T11:56:36.481Z,83.71
2022-12-01T11:57:36.559Z,84
2022-12-01T11:58:36.986Z,83.93
2022-12-01T11:59:37.294Z,84.04
2022-12-01T12:46:14.605Z,85.54
2022-12-01T12:56:33.781Z,86.48
2022-12-01T13:02:53.889Z,87.02
2022-12-01T13:05:05.578Z,87.17
2022-12-01T13:15:21.520Z,87.82
2022-12-01T13:16:26.408Z,88.06
2022-12-01T13:17:33.091Z,88.36
2022-12-01T13:19:32.794Z,88.72
2022-12-01T13:20:31.272Z,88.74
2022-12-01T13:23:38.351Z,89.07
2022-12-01T13:24:36.420Z,89.12
2022-12-01T13:26:41.853Z,88.93
2022-12-01T13:27:42.989Z,88.93
2022-12-01T13:31:51.618Z,89.2
2022-12-01T13:32:50.398Z,89.27
2022-12-01T13:33:59.730Z,89.08
2022-12-01T13:34:53.070Z,88.94
2022-12-01T13:36:22.519Z,89.06
2022-12-01T13:36:57.980Z,89.08
2022-12-01T13:43:22.619Z,89.5
2022-12-01T13:45:20.482Z,89.72
2022-12-01T13:46:23.853Z,89.98
2022-12-01T13:52:35.786Z,90.4
2022-12-01T13:53:38.354Z,90.22
2022-12-01T13:54:37.234Z,90.31
2022-12-01T14:00:53.577Z,90.69
2022-12-01T14:11:27.833Z,91.35
2022-12-01T14:12:20.781Z,91.43
2022-12-01T14:13:19.944Z,91.31
2022-12-01T14:14:26.234Z,91.27
2022-12-01T14:15:33.485Z,91.28
2022-12-01T14:16:22.089Z,91.41
2022-12-01T14:20:31.889Z,91.04
2022-12-01T14:22:43.074Z,91.26
2022-12-01T14:23:39.373Z,91.28
2022-12-01T14:25:42.154Z,90.78
2022-12-01T14:26:46.052Z,91.18
2022-12-01T14:27:44.608Z,91.33
2022-12-01T14:29:49.025Z,91.2
2022-12-01T14:35:03.918Z,91.16
2022-12-01T14:36:02.313Z,91.09
2022-12-01T14:38:07.619Z,90.96
2022-12-01T14:41:19.638Z,91.49
2022-12-01T14:43:17.990Z,91.67
2022-12-01T14:46:26.851Z,91.85
2022-12-01T14:51:36.890Z,91.87
2022-12-01T14:52:38.850Z,91.81
2022-12-01T14:53:40.791Z,91.77
2022-12-01T14:54:47.648Z,91.76
2022-12-01T14:55:46.742Z,91.61
2022-12-01T14:56:48.182Z,91.29
2022-12-01T14:58:57.512Z,91.24
2022-12-01T15:01:05.746Z,91.51
2022-12-01T15:01:57.676Z,91.55
2022-12-01T15:03:08.191Z,91.65
2022-12-01T15:03:59.805Z,91.8
2022-12-01T15:06:02.385Z,91.65
2022-12-01T15:07:03.094Z,91.82
2022-12-01T15:10:06.910Z,91.42
2022-12-01T15:11:11.241Z,91.61
2022-12-01T15:13:26.488Z,91.75
2022-12-01T15:15:25.675Z,92.03
2022-12-01T15:16:21.686Z,91.98
2022-12-01T15:21:32.679Z,92.05
2022-12-01T15:22:34.232Z,92.04
2022-12-01T15:23:32.499Z,92.11
2022-12-01T15:24:32.932Z,92.19
2022-12-01T15:25:34.450Z,92.41
2022-12-01T15:26:36.805Z,92.36
2022-12-01T15:27:34.682Z,92.33
2022-12-01T15:28:36.624Z,92.42
2022-12-01T15:29:44.295Z,92.19
2022-12-01T15:30:38.060Z,92.24
2022-12-01T15:31:37.923Z,92.29
2022-12-01T15:32:39.510Z,92.19
2022-12-01T15:33:44.470Z,91.99
2022-12-01T15:34:45.570Z,91.88
2022-12-01T15:35:43.827Z,91.95
2022-12-01T15:36:45.377Z,92.13
2022-12-01T15:37:45.902Z,92.21
2022-12-01T15:38:47.642Z,92.14
2022-12-01T15:39:53.169Z,92.2
2022-12-01T15:43:18.586Z,92.19
2022-12-01T15:46:17.045Z,92.28
2022-12-01T15:51:27.762Z,92.05
2022-12-01T15:52:26.044Z,91.96
2022-12-01T15:53:30.528Z,91.92
2022-12-01T15:54:28.499Z,92.03
2022-12-01T15:55:34.131Z,92.05
2022-12-01T15:56:36.186Z,91.88
2022-12-01T15:57:35.687Z,91.93
2022-12-01T15:58:41.832Z,91.79
2022-12-01T15:59:41.434Z,91.76
2022-12-01T16:00:39.589Z,91.72
2022-12-01T16:01:43.080Z,91.81
2022-12-01T16:02:40.994Z,91.82
2022-12-01T16:04:44.613Z,92.01
2022-12-01T16:05:45.355Z,91.98
2022-12-01T16:09:58.330Z,92.07
2022-12-01T16:15:15.628Z,92.09
2022-12-01T16:17:11.554Z,92.11
2022-12-01T16:21:17.612Z,92.22
2022-12-01T16:26:27.577Z,92.13
2022-12-01T16:27:30.452Z,92.14
2022-12-01T16:28:36.107Z,92.17
2022-12-01T16:29:37.632Z,92.06
2022-12-01T16:31:33.036Z,92.23
2022-12-01T16:33:39.320Z,92.05
2022-12-01T16:34:46.311Z,92.06
2022-12-01T16:35:39.822Z,92.14
2022-12-01T16:36:40.240Z,92.28
2022-12-01T16:37:40.661Z,92.28
2022-12-01T16:38:41.384Z,92.07
2022-12-01T16:39:41.391Z,92.04
2022-12-01T16:40:43.745Z,92.16
2022-12-01T16:41:43.393Z,92.14
2022-12-01T16:42:43.240Z,92.04
2022-12-01T16:43:54.495Z,92.07
2022-12-01T16:44:48.584Z,92.11
2022-12-01T16:45:48.951Z,92.11
2022-12-01T16:46:48.489Z,92.05
2022-12-01T16:47:49.365Z,92.19
2022-12-01T16:48:50.350Z,92.2
2022-12-01T16:49:50.462Z,92.2
2022-12-01T16:50:51.701Z,92.29
2022-12-01T16:51:55.797Z,92.27
2022-12-01T16:52:54.396Z,92.21
2022-12-01T16:53:54.582Z,92.27
2022-12-01T16:54:55.106Z,92.24
2022-12-01T16:55:58.901Z,92.15
2022-12-01T16:56:57.057Z,92.08
2022-12-01T16:57:57.943Z,92.15
2022-12-01T16:58:57.907Z,92.14
2022-12-01T16:59:58.313Z,92.08
2022-12-01T17:00:59.204Z,92.06
2022-12-01T17:02:00.165Z,92.14
2022-12-01T17:03:00.665Z,92.04
2022-12-01T17:04:04.653Z,92.08
2022-12-01T17:05:00.488Z,92.08
2022-12-01T17:06:02.650Z,92.15
2022-12-01T17:07:01.422Z,91.99
2022-12-01T17:08:01.788Z,91.95
2022-12-01T17:09:02.152Z,92.08
2022-12-01T17:10:02.849Z,92.04
2022-12-01T17:11:05.853Z,91.92
2022-12-01T17:12:03.922Z,91.82
2022-12-01T17:13:04.330Z,91.74
2022-12-01T17:14:04.856Z,91.61
2022-12-01T17:15:05.799Z,91.29
2022-12-01T17:16:08.149Z,91.19
2022-12-01T17:17:06.101Z,91.22
2022-12-01T17:18:06.633Z,91.17
2022-12-01T17:19:07.240Z,91.31
2022-12-01T17:20:08.886Z,91.42
2022-12-01T17:21:10.902Z,91.46
2022-12-01T17:22:08.737Z,91.4
2022-12-01T17:23:09.723Z,91.39
2022-12-01T17:24:10.041Z,91.37
2022-12-01T17:25:10.451Z,91.49
2022-12-01T17:26:13.427Z,91.58
2022-12-01T17:27:11.290Z,91.62
2022-12-01T17:28:11.799Z,91.91
2022-12-01T17:29:12.440Z,92.08
2022-12-01T17:30:16.348Z,92.2
2022-12-01T17:31:15.079Z,92.34
2022-12-01T17:32:15.539Z,92.36
2022-12-01T17:33:15.234Z,92.45
2022-12-01T17:34:17.382Z,92.43
2022-12-01T17:35:16.151Z,92.05
2022-12-01T17:36:17.080Z,91.93
2022-12-01T17:37:20.893Z,91.72
2022-12-01T17:38:19.366Z,91.82
2022-12-01T17:39:19.629Z,91.83
2022-12-01T17:40:20.693Z,91.83
2022-12-01T17:41:22.250Z,91.85
2022-12-01T17:42:21.523Z,91.94
2022-12-01T17:43:21.327Z,91.98
2022-12-01T17:44:21.919Z,92.09
2022-12-01T17:45:22.261Z,92.15
2022-12-01T17:46:22.941Z,91.95
2022-12-01T17:47:23.202Z,91.84
2022-12-01T17:48:23.709Z,91.76
2022-12-01T17:49:24.235Z,91.85
2022-12-01T17:50:25.360Z,91.9
2022-12-01T17:51:25.074Z,92.04
2022-12-01T17:52:28.512Z,91.99
2022-12-01T17:53:27.837Z,91.93
2022-12-01T17:54:27.148Z,91.87
2022-12-01T17:55:27.768Z,91.89
2022-12-01T17:56:28.271Z,92.04
2022-12-01T17:57:28.393Z,92.1
2022-12-01T17:58:30.740Z,92.14
2022-12-01T17:59:29.217Z,92.26
2022-12-01T18:00:29.989Z,92.2
2022-12-01T18:01:30.914Z,92.09
2022-12-01T18:02:30.859Z,92.13
2022-12-01T18:03:31.500Z,92.04
2022-12-01T18:04:32.278Z,91.92
2022-12-01T18:05:32.298Z,91.8
2022-12-01T18:06:32.634Z,91.66
2022-12-01T18:07:33.232Z,91.57
2022-12-01T18:08:36.249Z,91.54
2022-12-01T18:09:34.194Z,91.62
2022-12-01T18:10:34.715Z,91.58
2022-12-01T18:11:35.133Z,91.69
2022-12-01T18:12:35.671Z,91.58
2022-12-01T18:14:38.750Z,91.7